createdAt,value
2022-09-24T00:01:41.131Z,15.23
2022-09-24T00:04:12.133Z,14.47
2022-09-24T00:06:43.121Z,16.97
2022-09-24T00:09:13.937Z,13.60
2022-09-24T00:11:44.104Z,16.70
2022-09-24T00:14:12.133Z,16.27
2022-09-24T00:16:43.870Z,16.07
2022-09-24T00:19:13.814Z,15.53
2022-09-24T00:21:42.676Z,15.77
2022-09-24T00:24:33.752Z,16.07
2022-09-24T00:27:03.124Z,15.50
2022-09-24T00:29:34.186Z,15.00
2022-09-24T00:32:05.707Z,16.87
2022-09-24T00:34:33.337Z,14.30
2022-09-24T00:37:01.217Z,14.70
2022-09-24T00:39:28.747Z,15.80
2022-09-24T00:41:56.112Z,17.80
2022-09-24T00:44:54.451Z,16.10
2022-09-24T00:47:33.913Z,13.83
2022-09-24T00:50:16.856Z,17.50
2022-09-24T00:52:53.092Z,17.30
2022-09-24T00:55:24.030Z,14.73
2022-09-24T00:57:57.068Z,14.87
2022-09-24T01:00:25.033Z,14.87
2022-09-24T01:03:02.192Z,14.47
2022-09-24T01:05:29.911Z,14.27
2022-09-24T01:07:58.146Z,14.37
2022-09-24T01:10:51.063Z,14.70
2022-09-24T01:14:06.100Z,16.83
2022-09-24T01:16:46.061Z,16.63
2022-09-24T01:19:47.310Z,14.13
2022-09-24T01:22:31.515Z,14.63
2022-09-24T01:25:13.282Z,14.73
2022-09-24T01:28:09.549Z,15.13
2022-09-24T01:30:42.480Z,15.07
2022-09-24T01:33:19.332Z,15.97
2022-09-24T01:35:55.281Z,15.57
2022-09-24T01:38:28.482Z,15.27
2022-09-24T01:41:00.904Z,16.40
2022-09-24T01:43:30.341Z,14.17
2022-09-24T01:46:04.213Z,16.30
2022-09-24T01:48:33.128Z,15.67
2022-09-24T01:51:08.434Z,15.67
2022-09-24T01:53:42.726Z,15.27
2022-09-24T01:56:16.914Z,15.80
2022-09-24T01:58:51.853Z,16.17
2022-09-24T02:01:26.524Z,14.27
2022-09-24T02:03:58.825Z,17.23
2022-09-24T02:06:33.497Z,14.87
2022-09-24T02:09:00.739Z,15.50
2022-09-24T02:11:30.566Z,14.97
2022-09-24T02:14:03.190Z,16.57
2022-09-24T02:16:40.896Z,19.00
2022-09-24T02:19:14.259Z,15.00
2022-09-24T02:21:44.451Z,13.90
2022-09-24T02:24:19.402Z,16.33
2022-09-24T02:26:47.515Z,16.67
2022-09-24T02:29:15.043Z,15.90
2022-09-24T02:31:48.239Z,15.00
2022-09-24T02:34:21.220Z,17.13
2022-09-24T02:36:50.538Z,16.73
2022-09-24T02:39:17.846Z,15.93
2022-09-24T02:41:49.692Z,14.73
2022-09-24T02:44:17.639Z,16.40
2022-09-24T02:46:47.399Z,16.97
2022-09-24T02:49:15.334Z,16.77
2022-09-24T02:51:44.261Z,16.90
2022-09-24T02:54:11.993Z,15.37
2022-09-24T02:56:39.947Z,15.70
2022-09-24T02:59:07.816Z,14.77
2022-09-24T03:01:36.223Z,16.90
2022-09-24T03:04:05.506Z,16.30
2022-09-24T03:06:33.592Z,16.80
2022-09-24T03:09:03.020Z,16.60
2022-09-24T03:11:33.128Z,15.43
2022-09-24T03:14:00.637Z,15.37
2022-09-24T03:16:28.359Z,13.30
2022-09-24T03:18:55.653Z,12.97
2022-09-24T03:21:24.277Z,13.40
2022-09-24T03:23:51.678Z,16.13
2022-09-24T03:26:18.993Z,16.37
2022-09-24T03:28:46.451Z,15.30
2022-09-24T03:31:14.010Z,14.07
2022-09-24T03:33:44.558Z,15.00
2022-09-24T03:36:15.531Z,15.60
2022-09-24T03:38:46.575Z,15.07
2022-09-24T03:41:14.358Z,15.70
2022-09-24T03:43:41.914Z,15.73
2022-09-24T03:46:11.655Z,13.33
2022-09-24T03:48:40.886Z,15.17
2022-09-24T03:51:11.305Z,16.50
2022-09-24T03:53:39.446Z,15.03
2022-09-24T03:56:09.669Z,16.00
2022-09-24T03:58:39.131Z,15.43
2022-09-24T04:01:07.926Z,16.03
2022-09-24T04:03:36.351Z,16.00
2022-09-24T04:06:04.611Z,15.97
2022-09-24T04:08:32.363Z,16.40
2022-09-24T04:10:59.976Z,14.90
2022-09-24T04:13:28.764Z,14.40
2022-09-24T04:15:56.306Z,16.20
2022-09-24T04:18:23.672Z,15.70
2022-09-24T04:20:50.889Z,16.23
2022-09-24T04:23:18.146Z,14.97
2022-09-24T04:25:45.493Z,16.23
2022-09-24T04:28:12.760Z,14.77
2022-09-24T04:30:41.415Z,16.73
2022-09-24T04:33:09.132Z,16.83
2022-09-24T04:35:36.782Z,13.57
2022-09-24T04:38:04.841Z,15.47
2022-09-24T04:40:32.869Z,18.37
2022-09-24T04:43:00.243Z,17.60
2022-09-24T04:45:27.550Z,16.87
2022-09-24T04:47:57.395Z,17.03
2022-09-24T04:50:25.855Z,18.17
2022-09-24T04:52:53.504Z,18.90
2022-09-24T04:55:21.383Z,18.40
2022-09-24T04:57:49.252Z,19.70
2022-09-24T05:00:20.271Z,18.93
2022-09-24T05:02:55.175Z,20.60
2022-09-24T05:05:24.003Z,19.83
2022-09-24T05:07:51.843Z,21.07
2022-09-24T05:10:19.216Z,20.47
2022-09-24T05:12:46.536Z,20.73
2022-09-24T05:15:13.951Z,21.73
2022-09-24T05:17:41.381Z,22.70
2022-09-24T05:20:10.775Z,20.63
2022-09-24T05:22:42.982Z,22.93
2022-09-24T05:25:11.509Z,24.07
2022-09-24T05:27:44.206Z,25.10
2022-09-24T05:30:12.648Z,23.30
2022-09-24T05:32:40.290Z,23.60
2022-09-24T05:35:09.414Z,26.17
2022-09-24T05:37:38.234Z,25.73
2022-09-24T05:40:27.659Z,25.30
2022-09-24T05:43:00.570Z,27.10
2022-09-24T05:45:27.944Z,25.37
2022-09-24T05:47:55.253Z,28.00
2022-09-24T05:50:22.909Z,29.00
2022-09-24T05:52:50.208Z,27.83
2022-09-24T05:55:18.999Z,24.37
2022-09-24T05:57:46.353Z,27.23
2022-09-24T06:00:13.736Z,23.23
2022-09-24T06:02:41.134Z,28.27
2022-09-24T06:05:10.173Z,27.23
2022-09-24T06:07:37.535Z,25.50
2022-09-24T06:10:07.375Z,26.97
2022-09-24T06:12:36.015Z,26.03
2022-09-24T06:15:04.131Z,27.03
2022-09-24T06:17:32.308Z,27.43
2022-09-24T06:19:59.555Z,26.47
2022-09-24T06:22:29.016Z,23.53
2022-09-24T06:24:56.592Z,25.67
2022-09-24T06:27:24.124Z,24.97
2022-09-24T06:29:52.733Z,28.87
2022-09-24T06:32:19.959Z,24.13
2022-09-24T06:34:47.523Z,24.20
2022-09-24T06:37:14.773Z,24.77
2022-09-24T06:39:42.656Z,25.50
2022-09-24T06:42:10.033Z,22.00
2022-09-24T06:44:37.244Z,26.43
2022-09-24T06:47:05.964Z,27.67
2022-09-24T06:49:34.445Z,25.77
2022-09-24T06:52:02.665Z,27.43
2022-09-24T06:54:29.935Z,27.73
2022-09-24T06:56:57.088Z,29.17
2022-09-24T06:59:24.284Z,26.97
2022-09-24T07:01:51.674Z,25.23
2022-09-24T07:04:20.564Z,28.53
2022-09-24T07:07:06.147Z,28.80
2022-09-24T07:09:33.653Z,28.87
2022-09-24T07:12:05.367Z,29.83
2022-09-24T07:14:32.580Z,51.27
2022-09-24T07:17:00.194Z,30.50
2022-09-24T07:19:28.822Z,29.20
2022-09-24T07:21:56.024Z,27.97
2022-09-24T07:24:23.469Z,28.57
2022-09-24T07:26:54.245Z,28.43
2022-09-24T07:29:21.602Z,28.43
2022-09-24T07:31:49.067Z,27.57
2022-09-24T07:34:16.672Z,29.87
2022-09-24T07:36:45.241Z,29.60
2022-09-24T07:39:12.501Z,30.77
2022-09-24T07:41:42.238Z,28.80
2022-09-24T07:44:09.972Z,33.10
2022-09-24T07:46:37.513Z,24.47
2022-09-24T07:49:05.170Z,28.57
2022-09-24T07:51:32.491Z,28.40
2022-09-24T07:54:01.238Z,26.63
2022-09-24T07:56:28.584Z,28.53
2022-09-24T07:58:55.933Z,30.87
2022-09-24T08:01:24.414Z,29.10
2022-09-24T08:03:52.525Z,26.57
2022-09-24T08:06:23.746Z,29.07
2022-09-24T08:08:52.956Z,31.50
2022-09-24T08:11:21.591Z,28.67
2022-09-24T08:13:48.906Z,31.07
2022-09-24T08:16:16.488Z,30.03
2022-09-24T08:18:44.179Z,29.70
2022-09-24T08:21:13.217Z,31.10
2022-09-24T08:23:41.734Z,26.37
2022-09-24T08:26:09.820Z,28.23
2022-09-24T08:28:42.049Z,32.97
2022-09-24T08:31:12.925Z,33.33
2022-09-24T08:33:40.750Z,28.23
2022-09-24T08:36:09.838Z,29.50
2022-09-24T08:38:37.419Z,28.60
2022-09-24T08:41:27.126Z,31.87
2022-09-24T08:44:03.874Z,27.60
2022-09-24T08:46:57.955Z,34.20
2022-09-24T08:49:35.304Z,30.03
2022-09-24T08:52:29.362Z,34.70
2022-09-24T08:55:02.370Z,36.03
2022-09-24T08:57:40.720Z,31.97
2022-09-24T09:00:15.138Z,30.87
2022-09-24T09:02:55.013Z,27.63
2022-09-24T09:05:41.588Z,29.90
2022-09-24T09:08:47.035Z,28.07
2022-09-24T09:11:15.907Z,27.60
2022-09-24T09:13:50.181Z,28.03
2022-09-24T09:16:37.126Z,34.33
2022-09-24T09:19:09.629Z,32.07
2022-09-24T09:21:45.097Z,33.47
2022-09-24T09:24:20.652Z,29.57
2022-09-24T09:26:54.592Z,30.33
2022-09-24T09:29:24.568Z,26.83
2022-09-24T09:32:09.939Z,31.40
2022-09-24T09:34:56.218Z,35.00
2022-09-24T09:37:34.688Z,30.27
2022-09-24T09:40:27.786Z,32.37
2022-09-24T09:43:03.207Z,28.63
2022-09-24T09:45:39.443Z,32.57
2022-09-24T09:48:14.065Z,28.80
2022-09-24T09:50:47.866Z,29.83
2022-09-24T09:53:24.197Z,28.60
2022-09-24T09:55:55.575Z,30.13
2022-09-24T09:58:26.740Z,32.23
2022-09-24T10:01:05.991Z,33.43
2022-09-24T10:03:47.979Z,34.93
2022-09-24T10:06:24.709Z,30.93
2022-09-24T10:08:52.087Z,32.67
2022-09-24T10:11:19.881Z,32.20
2022-09-24T10:13:47.170Z,31.83
2022-09-24T10:16:16.220Z,29.57
2022-09-24T10:18:49.689Z,28.83
2022-09-24T10:21:31.808Z,30.20
2022-09-24T10:24:03.051Z,29.13
2022-09-24T10:26:44.790Z,29.10
2022-09-24T10:29:36.201Z,30.37
2022-09-24T10:32:04.395Z,32.43
2022-09-24T10:34:33.153Z,31.37
2022-09-24T10:37:07.402Z,31.97
2022-09-24T10:39:38.530Z,28.60
2022-09-24T10:42:07.833Z,29.37
2022-09-24T10:44:37.320Z,28.87
2022-09-24T10:47:23.351Z,30.93
2022-09-24T10:50:17.667Z,24.47
2022-09-24T10:52:53.132Z,27.83
2022-09-24T10:55:46.101Z,29.47
2022-09-24T10:58:46.910Z,27.73
2022-09-24T11:01:23.100Z,25.20
2022-09-24T11:04:21.787Z,28.40
2022-09-24T11:07:16.897Z,27.73
2022-09-24T11:09:56.963Z,29.47
2022-09-24T11:12:37.805Z,28.87
2022-09-24T11:15:27.245Z,28.00
2022-09-24T11:18:14.377Z,28.00
2022-09-24T11:20:53.736Z,28.60
2022-09-24T11:24:21.846Z,27.33
2022-09-24T11:27:08.536Z,26.83
2022-09-24T11:30:00.374Z,24.67
2022-09-24T11:32:41.456Z,24.83
2022-09-24T11:36:04.383Z,26.07
2022-09-24T11:38:57.358Z,25.53
2022-09-24T11:41:43.591Z,25.93
2022-09-24T11:44:52.325Z,23.47
2022-09-24T11:47:41.711Z,24.63
2022-09-24T11:50:29.343Z,24.90
2022-09-24T11:53:03.034Z,25.10
2022-09-24T11:55:39.711Z,24.37
2022-09-24T11:58:17.543Z,25.00
2022-09-24T12:00:56.197Z,26.37
2022-09-24T12:03:35.158Z,22.47
2022-09-24T12:06:09.280Z,25.87
2022-09-24T12:08:42.543Z,22.30
2022-09-24T12:11:20.856Z,25.67
2022-09-24T12:13:57.005Z,22.13
2022-09-24T12:16:28.581Z,21.93
2022-09-24T12:19:04.567Z,22.83
2022-09-24T12:21:40.540Z,22.00
2022-09-24T12:24:17.209Z,22.30
2022-09-24T12:26:47.942Z,22.37
2022-09-24T12:29:58.762Z,24.37
2022-09-24T12:32:54.312Z,21.03
2022-09-24T12:35:34.694Z,23.30
2022-09-24T12:38:10.307Z,21.23
2022-09-24T12:41:17.605Z,23.60
2022-09-24T12:43:53.735Z,22.87
2022-09-24T12:46:26.570Z,22.43
2022-09-24T12:48:55.730Z,24.27
2022-09-24T12:51:24.151Z,23.47
2022-09-24T12:54:05.539Z,21.60
2022-09-24T12:56:34.377Z,19.83
2022-09-24T12:59:05.616Z,24.63
2022-09-24T13:01:34.457Z,21.67
2022-09-24T13:04:32.914Z,22.27
2022-09-24T13:07:00.240Z,20.93
2022-09-24T13:09:37.149Z,23.63
2022-09-24T13:12:24.278Z,22.33
2022-09-24T13:15:04.118Z,24.00
2022-09-24T13:17:34.411Z,21.80
2022-09-24T13:20:06.469Z,22.20
2022-09-24T13:22:36.752Z,22.47
2022-09-24T13:25:24.092Z,22.20
2022-09-24T13:28:01.877Z,21.43
2022-09-24T13:30:40.377Z,23.37
2022-09-24T13:33:24.012Z,26.73
2022-09-24T13:36:10.437Z,22.13
2022-09-24T13:38:48.523Z,25.47
2022-09-24T13:41:30.218Z,22.87
2022-09-24T13:44:04.530Z,21.03
2022-09-24T13:46:41.238Z,25.83
2022-09-24T13:49:18.661Z,22.87
2022-09-24T13:51:59.291Z,24.20
2022-09-24T13:54:34.860Z,23.40
2022-09-24T13:57:12.218Z,22.37
2022-09-24T13:59:39.475Z,23.17
2022-09-24T14:02:25.617Z,24.17
2022-09-24T14:04:59.205Z,23.13
2022-09-24T14:07:28.614Z,22.40
2022-09-24T14:10:13.090Z,22.13
2022-09-24T14:12:40.856Z,21.57
2022-09-24T14:15:16.660Z,22.80
2022-09-24T14:17:57.196Z,22.03
2022-09-24T14:20:31.720Z,22.27
2022-09-24T14:22:59.447Z,26.00
2022-09-24T14:25:32.523Z,23.47
2022-09-24T14:28:03.429Z,20.97
2022-09-24T14:30:47.544Z,22.77
2022-09-24T14:33:20.853Z,22.50
2022-09-24T14:35:52.859Z,24.37
2022-09-24T14:38:23.860Z,22.73
2022-09-24T14:40:57.759Z,21.60
2022-09-24T14:43:34.176Z,23.57
2022-09-24T14:46:07.198Z,20.53
2022-09-24T14:48:36.356Z,21.13
2022-09-24T14:51:04.105Z,22.03
2022-09-24T14:53:35.341Z,21.90
2022-09-24T14:56:19.746Z,21.23
2022-09-24T14:58:47.117Z,20.63
2022-09-24T15:01:17.664Z,21.07
2022-09-24T15:03:51.442Z,19.80
2022-09-24T15:06:22.542Z,21.47
2022-09-24T15:09:00.176Z,19.20
2022-09-24T15:11:32.743Z,22.10
2022-09-24T15:14:11.711Z,20.90
2022-09-24T15:16:39.117Z,21.13
2022-09-24T15:19:23.202Z,22.17
2022-09-24T15:21:53.193Z,20.20
2022-09-24T15:24:21.190Z,20.77
2022-09-24T15:27:00.850Z,19.43
2022-09-24T15:29:28.179Z,22.90
2022-09-24T15:35:17.413Z,19.80
2022-09-24T15:37:45.464Z,22.10
2022-09-24T15:40:21.608Z,21.80
2022-09-24T15:42:49.827Z,20.53
2022-09-24T15:45:21.255Z,20.60
2022-09-24T15:47:48.687Z,22.47
2022-09-24T15:50:18.489Z,21.43
2022-09-24T15:52:51.088Z,19.40
2022-09-24T15:55:21.056Z,19.23
2022-09-24T15:57:48.633Z,18.77
2022-09-24T16:00:19.282Z,20.20
2022-09-24T16:02:50.281Z,17.30
2022-09-24T16:05:20.000Z,20.50
2022-09-24T16:07:47.512Z,18.13
2022-09-24T16:10:15.779Z,20.30
2022-09-24T16:12:43.868Z,18.57
2022-09-24T16:15:14.545Z,19.43
2022-09-24T16:17:42.105Z,19.37
2022-09-24T16:20:10.479Z,19.67
2022-09-24T16:22:39.251Z,17.13
2022-09-24T16:25:08.060Z,19.70
2022-09-24T16:27:36.519Z,18.73
2022-09-24T16:30:05.410Z,19.87
2022-09-24T16:32:32.734Z,19.77
2022-09-24T16:35:00.022Z,17.87
2022-09-24T16:37:27.303Z,18.83
2022-09-24T16:39:56.149Z,17.37
2022-09-24T16:42:26.260Z,18.93
2022-09-24T16:44:53.609Z,18.83
2022-09-24T16:47:21.142Z,18.63
2022-09-24T16:49:48.438Z,20.93
2022-09-24T16:52:15.747Z,19.30
2022-09-24T16:54:43.523Z,18.50
2022-09-24T16:57:13.195Z,19.67
2022-09-24T16:59:40.447Z,19.73
2022-09-24T17:02:09.105Z,20.83
2022-09-24T17:04:37.492Z,18.10
2022-09-24T17:07:04.795Z,18.53
2022-09-24T17:09:50.766Z,15.53
2022-09-24T17:12:19.810Z,18.57
2022-09-24T17:14:47.134Z,18.17
2022-09-24T17:17:14.741Z,18.87
2022-09-24T17:19:42.028Z,16.43
2022-09-24T17:22:09.325Z,19.07
2022-09-24T17:24:39.916Z,15.83
2022-09-24T17:27:07.922Z,18.67
2022-09-24T17:29:36.603Z,16.63
2022-09-24T17:32:03.922Z,16.23
2022-09-24T17:34:31.584Z,15.67
2022-09-24T17:36:59.550Z,14.10
2022-09-24T17:39:27.827Z,11.37
2022-09-24T17:41:55.163Z,10.77
2022-09-24T17:44:22.549Z,11.23
2022-09-24T17:46:51.265Z,10.40
2022-09-24T17:49:18.793Z,10.20
2022-09-24T17:51:46.535Z,8.63
2022-09-24T17:54:16.239Z,6.30
2022-09-24T17:56:43.499Z,4.67
2022-09-24T17:59:13.411Z,3.97
2022-09-24T18:01:43.575Z,3.50
2022-09-24T18:04:14.730Z,3.97
2022-09-24T18:06:45.251Z,4.20
2022-09-24T18:09:15.045Z,3.47
2022-09-24T18:11:45.303Z,4.17
2022-09-24T18:14:16.944Z,4.20
2022-09-24T18:16:45.355Z,5.30
2022-09-24T18:19:16.998Z,4.73
2022-09-24T18:21:45.794Z,5.07
2022-09-24T18:24:13.157Z,4.50
2022-09-24T18:26:41.313Z,6.50
2022-09-24T18:29:14.107Z,5.07
2022-09-24T18:31:42.380Z,4.97
2022-09-24T18:34:14.682Z,6.17
2022-09-24T18:36:44.706Z,6.50
2022-09-24T18:39:21.770Z,7.90
2022-09-24T18:41:52.523Z,8.57
2022-09-24T18:44:19.869Z,8.67
2022-09-24T18:46:50.475Z,8.73
2022-09-24T18:49:19.669Z,8.57
2022-09-24T18:51:47.172Z,7.00
2022-09-24T18:54:15.594Z,10.90
2022-09-24T18:56:43.618Z,7.17
2022-09-24T18:59:14.204Z,11.43
2022-09-24T19:01:43.507Z,11.43
2022-09-24T19:04:12.944Z,11.90
2022-09-24T19:06:44.973Z,11.03
2022-09-24T19:09:14.768Z,8.43
2022-09-24T19:11:42.347Z,8.83
2022-09-24T19:14:13.525Z,7.93
2022-09-24T19:16:41.182Z,9.47
2022-09-24T19:19:09.760Z,9.87
2022-09-24T19:21:37.565Z,10.87
2022-09-24T19:24:07.274Z,11.07
2022-09-24T19:26:36.674Z,11.60
2022-09-24T19:29:05.472Z,12.03
2022-09-24T19:31:38.681Z,11.43
2022-09-24T19:34:07.905Z,12.80
2022-09-24T19:36:45.059Z,11.73
2022-09-24T19:39:16.788Z,11.83
2022-09-24T19:41:45.112Z,9.97
2022-09-24T19:44:13.592Z,11.93
2022-09-24T19:46:41.366Z,10.50
2022-09-24T19:49:08.887Z,10.03
2022-09-24T19:51:37.391Z,8.50
2022-09-24T19:54:07.490Z,11.23
2022-09-24T19:56:37.291Z,9.20
2022-09-24T19:59:05.881Z,7.50
2022-09-24T20:01:34.379Z,8.00
2022-09-24T20:04:05.744Z,6.97
2022-09-24T20:06:35.980Z,9.33
2022-09-24T20:09:05.801Z,7.77
2022-09-24T20:11:33.530Z,7.90
2022-09-24T20:14:02.270Z,7.80
2022-09-24T20:16:32.956Z,9.77
2022-09-24T20:19:02.819Z,7.70
2022-09-24T20:21:34.476Z,7.67
2022-09-24T20:24:03.975Z,8.53
2022-09-24T20:26:50.589Z,6.90
2022-09-24T20:29:21.587Z,7.40
2022-09-24T20:31:52.030Z,8.70
2022-09-24T20:34:21.684Z,6.87
2022-09-24T20:36:49.331Z,7.53
2022-09-24T20:39:17.371Z,7.87
2022-09-24T20:41:45.347Z,8.57
2022-09-24T20:44:13.315Z,9.27
2022-09-24T20:46:42.056Z,8.07
2022-09-24T20:49:24.347Z,9.03
2022-09-24T20:51:56.992Z,8.63
2022-09-24T20:54:25.911Z,9.03
2022-09-24T20:56:53.155Z,9.63
2022-09-24T20:59:20.509Z,11.07
2022-09-24T21:01:51.029Z,9.77
2022-09-24T21:04:20.048Z,9.67
2022-09-24T21:06:48.172Z,9.53
2022-09-24T21:09:16.919Z,8.80
2022-09-24T21:11:44.207Z,10.27
2022-09-24T21:14:12.456Z,10.17
2022-09-24T21:16:40.531Z,10.53
2022-09-24T21:19:12.419Z,8.87
2022-09-24T21:21:40.478Z,10.23
2022-09-24T21:24:12.467Z,9.93
2022-09-24T21:26:40.807Z,9.43
2022-09-24T21:29:11.552Z,9.63
2022-09-24T21:31:41.979Z,9.77
2022-09-24T21:34:12.941Z,8.93
2022-09-24T21:36:44.662Z,11.03
2022-09-24T21:39:16.506Z,10.17
2022-09-24T21:41:45.101Z,10.43
2022-09-24T21:44:14.767Z,10.87
2022-09-24T21:46:43.929Z,10.23
2022-09-24T21:49:13.745Z,11.13
2022-09-24T21:51:41.934Z,10.37
2022-09-24T21:54:14.204Z,11.00
2022-09-24T21:56:41.466Z,11.70
2022-09-24T21:59:27.924Z,11.67
2022-09-24T22:01:55.993Z,11.77
2022-09-24T22:04:24.681Z,12.60
2022-09-24T22:06:52.570Z,12.67
2022-09-24T22:09:20.564Z,12.07
2022-09-24T22:11:47.841Z,14.20
2022-09-24T22:14:15.149Z,13.47
2022-09-24T22:16:42.451Z,13.23
2022-09-24T22:19:09.814Z,13.17
2022-09-24T22:21:38.424Z,13.87
2022-09-24T22:24:06.157Z,12.57
2022-09-24T22:26:33.787Z,16.10
2022-09-24T22:29:02.089Z,14.53
2022-09-24T22:31:29.949Z,13.83
2022-09-24T22:34:16.272Z,13.40
2022-09-24T22:36:44.909Z,14.30
2022-09-24T22:39:12.098Z,14.57
2022-09-24T22:41:42.989Z,14.13
2022-09-24T22:44:11.895Z,14.37
2022-09-24T22:46:41.289Z,13.87
2022-09-24T22:49:10.754Z,14.20
2022-09-24T22:51:39.344Z,13.73
2022-09-24T22:54:09.622Z,14.17
2022-09-24T22:56:37.779Z,13.67
2022-09-24T22:59:05.755Z,13.37
2022-09-24T23:01:38.413Z,12.17
2022-09-24T23:04:06.078Z,12.97
2022-09-24T23:06:34.726Z,12.10
2022-09-24T23:09:02.203Z,14.30
2022-09-24T23:11:33.278Z,12.67
2022-09-24T23:14:04.755Z,12.20
2022-09-24T23:16:34.977Z,10.60
2022-09-24T23:19:05.924Z,10.93
2022-09-24T23:21:34.733Z,11.57
2022-09-24T23:24:05.660Z,12.63
2022-09-24T23:26:34.573Z,10.53
2022-09-24T23:29:01.917Z,13.23
2022-09-24T23:31:32.291Z,10.70
2022-09-24T23:34:01.323Z,10.13
2022-09-24T23:36:33.834Z,10.37
2022-09-24T23:39:02.377Z,8.77
2022-09-24T23:41:31.435Z,8.73
2022-09-24T23:44:02.156Z,8.43
2022-09-24T23:46:29.676Z,8.47
2022-09-24T23:48:57.154Z,9.67
2022-09-24T23:51:24.532Z,10.47
2022-09-24T23:53:52.259Z,9.53
2022-09-24T23:56:20.631Z,9.53
2022-09-24T23:58:48.338Z,8.47
